sensor_id;sensor_type;location;lat;lon;timestamp;P1;durP1;ratioP1;P2;durP2;ratioP2
52494;SDS011;38405;53.212;5.660;2023-04-25T00:00:13;21.45;;;3.58;;
52494;SDS011;38405;53.212;5.660;2023-04-25T00:02:39;12.70;;;3.17;;
52494;SDS011;38405;53.212;5.660;2023-04-25T00:05:06;14.05;;;2.97;;
52494;SDS011;38405;53.212;5.660;2023-04-25T00:07:33;14.30;;;2.60;;
52494;SDS011;38405;53.212;5.660;2023-04-25T00:09:59;12.45;;;3.20;;
52494;SDS011;38405;53.212;5.660;2023-04-25T00:12:25;15.07;;;3.42;;
52494;SDS011;38405;53.212;5.660;2023-04-25T00:14:53;18.45;;;3.50;;
52494;SDS011;38405;53.212;5.660;2023-04-25T00:17:22;15.05;;;3.17;;
52494;SDS011;38405;53.212;5.660;2023-04-25T00:19:49;9.98;;;2.42;;
52494;SDS011;38405;53.212;5.660;2023-04-25T00:22:15;8.10;;;2.40;;
52494;SDS011;38405;53.212;5.660;2023-04-25T00:24:42;12.88;;;2.60;;
52494;SDS011;38405;53.212;5.660;2023-04-25T00:27:08;8.48;;;1.98;;
52494;SDS011;38405;53.212;5.660;2023-04-25T00:29:33;12.00;;;2.22;;
52494;SDS011;38405;53.212;5.660;2023-04-25T00:31:59;7.82;;;1.98;;
52494;SDS011;38405;53.212;5.660;2023-04-25T00:34:25;7.30;;;1.70;;
52494;SDS011;38405;53.212;5.660;2023-04-25T00:36:51;11.20;;;2.40;;
52494;SDS011;38405;53.212;5.660;2023-04-25T00:39:16;15.57;;;2.53;;
52494;SDS011;38405;53.212;5.660;2023-04-25T00:41:42;13.45;;;2.28;;
52494;SDS011;38405;53.212;5.660;2023-04-25T00:44:09;13.57;;;2.20;;
52494;SDS011;38405;53.212;5.660;2023-04-25T00:46:36;14.00;;;2.53;;
52494;SDS011;38405;53.212;5.660;2023-04-25T00:49:02;14.00;;;2.80;;
52494;SDS011;38405;53.212;5.660;2023-04-25T00:51:28;17.40;;;2.58;;
52494;SDS011;38405;53.212;5.660;2023-04-25T00:53:55;13.48;;;2.75;;
52494;SDS011;38405;53.212;5.660;2023-04-25T00:56:21;18.33;;;3.13;;
52494;SDS011;38405;53.212;5.660;2023-04-25T00:58:47;16.60;;;2.95;;
52494;SDS011;38405;53.212;5.660;2023-04-25T01:01:14;15.05;;;3.00;;
52494;SDS011;38405;53.212;5.660;2023-04-25T01:03:40;14.70;;;3.65;;
52494;SDS011;38405;53.212;5.660;2023-04-25T01:06:09;21.58;;;3.17;;
52494;SDS011;38405;53.212;5.660;2023-04-25T01:08:36;15.18;;;2.75;;
52494;SDS011;38405;53.212;5.660;2023-04-25T01:11:03;10.60;;;2.50;;
52494;SDS011;38405;53.212;5.660;2023-04-25T01:13:29;8.95;;;2.33;;
52494;SDS011;38405;53.212;5.660;2023-04-25T01:15:56;15.18;;;2.67;;
52494;SDS011;38405;53.212;5.660;2023-04-25T01:18:23;7.93;;;2.10;;
52494;SDS011;38405;53.212;5.660;2023-04-25T01:20:50;8.95;;;1.80;;
52494;SDS011;38405;53.212;5.660;2023-04-25T01:23:17;7.00;;;2.13;;
52494;SDS011;38405;53.212;5.660;2023-04-25T01:25:44;11.18;;;1.80;;
52494;SDS011;38405;53.212;5.660;2023-04-25T01:28:10;11.38;;;2.03;;
52494;SDS011;38405;53.212;5.660;2023-04-25T01:30:39;8.93;;;2.10;;
52494;SDS011;38405;53.212;5.660;2023-04-25T01:33:06;8.05;;;2.05;;
52494;SDS011;38405;53.212;5.660;2023-04-25T01:35:33;6.25;;;1.42;;
52494;SDS011;38405;53.212;5.660;2023-04-25T01:38:01;9.45;;;1.77;;
52494;SDS011;38405;53.212;5.660;2023-04-25T01:40:27;5.25;;;1.38;;
52494;SDS011;38405;53.212;5.660;2023-04-25T01:42:53;6.50;;;1.67;;
52494;SDS011;38405;53.212;5.660;2023-04-25T01:45:19;7.32;;;1.58;;
52494;SDS011;38405;53.212;5.660;2023-04-25T01:47:45;10.77;;;1.90;;
52494;SDS011;38405;53.212;5.660;2023-04-25T01:50:16;8.50;;;1.50;;
52494;SDS011;38405;53.212;5.660;2023-04-25T01:52:43;7.32;;;1.83;;
52494;SDS011;38405;53.212;5.660;2023-04-25T01:55:09;4.70;;;1.55;;
52494;SDS011;38405;53.212;5.660;2023-04-25T01:57:35;4.28;;;1.30;;
52494;SDS011;38405;53.212;5.660;2023-04-25T02:00:01;7.15;;;1.70;;
52494;SDS011;38405;53.212;5.660;2023-04-25T02:02:29;7.15;;;1.80;;
52494;SDS011;38405;53.212;5.660;2023-04-25T02:04:55;8.05;;;1.75;;
52494;SDS011;38405;53.212;5.660;2023-04-25T02:07:21;6.80;;;1.80;;
52494;SDS011;38405;53.212;5.660;2023-04-25T02:09:47;7.97;;;2.67;;
52494;SDS011;38405;53.212;5.660;2023-04-25T02:12:12;6.35;;;1.58;;
52494;SDS011;38405;53.212;5.660;2023-04-25T02:14:38;6.15;;;1.70;;
52494;SDS011;38405;53.212;5.660;2023-04-25T02:17:04;8.70;;;2.15;;
52494;SDS011;38405;53.212;5.660;2023-04-25T02:19:30;7.45;;;1.55;;
52494;SDS011;38405;53.212;5.660;2023-04-25T02:21:56;6.50;;;2.10;;
52494;SDS011;38405;53.212;5.660;2023-04-25T02:24:22;6.85;;;1.65;;
52494;SDS011;38405;53.212;5.660;2023-04-25T02:26:48;8.75;;;2.35;;
52494;SDS011;38405;53.212;5.660;2023-04-25T02:29:14;9.10;;;2.05;;
52494;SDS011;38405;53.212;5.660;2023-04-25T02:31:40;11.18;;;2.42;;
52494;SDS011;38405;53.212;5.660;2023-04-25T02:34:06;13.98;;;2.80;;
52494;SDS011;38405;53.212;5.660;2023-04-25T02:36:32;12.02;;;2.55;;
52494;SDS011;38405;53.212;5.660;2023-04-25T02:38:59;10.43;;;2.03;;
52494;SDS011;38405;53.212;5.660;2023-04-25T02:41:25;11.23;;;2.00;;
52494;SDS011;38405;53.212;5.660;2023-04-25T02:43:51;12.93;;;2.45;;
52494;SDS011;38405;53.212;5.660;2023-04-25T02:46:17;10.82;;;2.15;;
52494;SDS011;38405;53.212;5.660;2023-04-25T02:48:43;15.77;;;2.67;;
52494;SDS011;38405;53.212;5.660;2023-04-25T02:51:09;18.52;;;2.65;;
52494;SDS011;38405;53.212;5.660;2023-04-25T02:53:34;10.75;;;2.47;;
52494;SDS011;38405;53.212;5.660;2023-04-25T02:56:00;7.13;;;1.95;;
52494;SDS011;38405;53.212;5.660;2023-04-25T02:58:26;19.00;;;2.60;;
52494;SDS011;38405;53.212;5.660;2023-04-25T03:00:52;11.32;;;1.98;;
52494;SDS011;38405;53.212;5.660;2023-04-25T03:03:17;10.85;;;2.67;;
52494;SDS011;38405;53.212;5.660;2023-04-25T03:05:46;12.25;;;2.38;;
52494;SDS011;38405;53.212;5.660;2023-04-25T03:08:15;8.07;;;2.03;;
52494;SDS011;38405;53.212;5.660;2023-04-25T03:10:42;10.10;;;2.20;;
52494;SDS011;38405;53.212;5.660;2023-04-25T03:13:08;7.43;;;1.88;;
52494;SDS011;38405;53.212;5.660;2023-04-25T03:15:35;8.98;;;2.05;;
52494;SDS011;38405;53.212;5.660;2023-04-25T03:18:01;13.55;;;2.20;;
52494;SDS011;38405;53.212;5.660;2023-04-25T03:20:27;8.07;;;1.48;;
52494;SDS011;38405;53.212;5.660;2023-04-25T03:22:53;5.68;;;1.42;;
52494;SDS011;38405;53.212;5.660;2023-04-25T03:25:19;10.85;;;2.08;;
52494;SDS011;38405;53.212;5.660;2023-04-25T03:27:45;13.07;;;2.08;;
52494;SDS011;38405;53.212;5.660;2023-04-25T03:30:10;12.45;;;1.85;;
52494;SDS011;38405;53.212;5.660;2023-04-25T03:32:36;7.90;;;2.03;;
52494;SDS011;38405;53.212;5.660;2023-04-25T03:35:02;9.05;;;1.92;;
52494;SDS011;38405;53.212;5.660;2023-04-25T03:37:28;7.60;;;1.92;;
52494;SDS011;38405;53.212;5.660;2023-04-25T03:39:54;8.70;;;2.00;;
52494;SDS011;38405;53.212;5.660;2023-04-25T03:42:19;8.68;;;1.60;;
52494;SDS011;38405;53.212;5.660;2023-04-25T03:44:47;8.82;;;1.75;;
52494;SDS011;38405;53.212;5.660;2023-04-25T03:47:14;10.02;;;2.05;;
52494;SDS011;38405;53.212;5.660;2023-04-25T03:49:41;4.95;;;1.52;;
52494;SDS011;38405;53.212;5.660;2023-04-25T03:52:07;11.55;;;1.90;;
52494;SDS011;38405;53.212;5.660;2023-04-25T03:54:32;3.83;;;1.50;;
52494;SDS011;38405;53.212;5.660;2023-04-25T03:56:58;11.38;;;1.90;;
52494;SDS011;38405;53.212;5.660;2023-04-25T03:59:24;6.38;;;1.73;;
52494;SDS011;38405;53.212;5.660;2023-04-25T04:01:51;8.38;;;2.20;;
52494;SDS011;38405;53.212;5.660;2023-04-25T04:04:17;8.85;;;1.88;;
52494;SDS011;38405;53.212;5.660;2023-04-25T04:06:43;8.73;;;1.88;;
52494;SDS011;38405;53.212;5.660;2023-04-25T04:09:09;12.82;;;1.90;;
52494;SDS011;38405;53.212;5.660;2023-04-25T04:11:36;11.95;;;2.00;;
52494;SDS011;38405;53.212;5.660;2023-04-25T04:14:04;12.38;;;1.67;;
52494;SDS011;38405;53.212;5.660;2023-04-25T04:16:30;7.93;;;1.85;;
52494;SDS011;38405;53.212;5.660;2023-04-25T04:18:56;8.13;;;1.85;;
52494;SDS011;38405;53.212;5.660;2023-04-25T04:21:22;7.47;;;1.27;;
52494;SDS011;38405;53.212;5.660;2023-04-25T04:23:47;13.60;;;1.73;;
52494;SDS011;38405;53.212;5.660;2023-04-25T04:26:15;10.57;;;1.67;;
52494;SDS011;38405;53.212;5.660;2023-04-25T04:28:42;10.73;;;2.08;;
52494;SDS011;38405;53.212;5.660;2023-04-25T04:31:09;8.30;;;1.40;;
52494;SDS011;38405;53.212;5.660;2023-04-25T04:33:35;10.30;;;1.83;;
52494;SDS011;38405;53.212;5.660;2023-04-25T04:36:02;6.25;;;1.52;;
52494;SDS011;38405;53.212;5.660;2023-04-25T04:38:28;11.15;;;1.90;;
52494;SDS011;38405;53.212;5.660;2023-04-25T04:40:55;6.93;;;1.20;;
52494;SDS011;38405;53.212;5.660;2023-04-25T04:43:21;4.80;;;1.50;;
52494;SDS011;38405;53.212;5.660;2023-04-25T04:45:48;6.03;;;1.23;;
52494;SDS011;38405;53.212;5.660;2023-04-25T04:48:15;4.15;;;1.27;;
52494;SDS011;38405;53.212;5.660;2023-04-25T04:50:44;4.95;;;1.23;;
52494;SDS011;38405;53.212;5.660;2023-04-25T04:53:12;4.10;;;1.20;;
52494;SDS011;38405;53.212;5.660;2023-04-25T04:55:38;2.25;;;1.10;;
52494;SDS011;38405;53.212;5.660;2023-04-25T04:58:06;6.05;;;1.92;;
52494;SDS011;38405;53.212;5.660;2023-04-25T05:00:32;6.80;;;1.40;;
52494;SDS011;38405;53.212;5.660;2023-04-25T05:02:58;7.72;;;1.52;;
52494;SDS011;38405;53.212;5.660;2023-04-25T05:05:24;1.83;;;1.10;;
52494;SDS011;38405;53.212;5.660;2023-04-25T05:07:50;6.20;;;1.23;;
52494;SDS011;38405;53.212;5.660;2023-04-25T05:10:16;7.57;;;1.60;;
52494;SDS011;38405;53.212;5.660;2023-04-25T05:12:42;6.10;;;1.65;;
52494;SDS011;38405;53.212;5.660;2023-04-25T05:15:08;9.05;;;1.30;;
52494;SDS011;38405;53.212;5.660;2023-04-25T05:17:34;10.52;;;1.85;;
52494;SDS011;38405;53.212;5.660;2023-04-25T05:20:00;9.02;;;1.67;;
52494;SDS011;38405;53.212;5.660;2023-04-25T05:22:25;8.93;;;1.70;;
52494;SDS011;38405;53.212;5.660;2023-04-25T05:24:51;9.77;;;1.52;;
52494;SDS011;38405;53.212;5.660;2023-04-25T05:27:17;12.57;;;1.90;;
52494;SDS011;38405;53.212;5.660;2023-04-25T05:29:43;9.05;;;1.77;;
52494;SDS011;38405;53.212;5.660;2023-04-25T05:32:09;12.10;;;2.05;;
52494;SDS011;38405;53.212;5.660;2023-04-25T05:34:35;11.32;;;1.80;;
52494;SDS011;38405;53.212;5.660;2023-04-25T05:37:01;13.98;;;2.80;;
52494;SDS011;38405;53.212;5.660;2023-04-25T05:39:27;7.85;;;2.40;;
52494;SDS011;38405;53.212;5.660;2023-04-25T05:41:53;8.32;;;1.70;;
52494;SDS011;38405;53.212;5.660;2023-04-25T05:44:18;6.60;;;1.50;;
52494;SDS011;38405;53.212;5.660;2023-04-25T05:46:44;5.05;;;1.55;;
52494;SDS011;38405;53.212;5.660;2023-04-25T05:49:10;7.70;;;1.52;;
52494;SDS011;38405;53.212;5.660;2023-04-25T05:51:36;10.05;;;1.73;;
52494;SDS011;38405;53.212;5.660;2023-04-25T05:54:01;6.00;;;1.30;;
52494;SDS011;38405;53.212;5.660;2023-04-25T05:56:27;4.28;;;1.40;;
52494;SDS011;38405;53.212;5.660;2023-04-25T05:58:53;5.75;;;1.30;;
52494;SDS011;38405;53.212;5.660;2023-04-25T06:01:18;6.70;;;1.95;;
52494;SDS011;38405;53.212;5.660;2023-04-25T06:03:44;6.28;;;1.60;;
52494;SDS011;38405;53.212;5.660;2023-04-25T06:06:10;6.05;;;1.50;;
52494;SDS011;38405;53.212;5.660;2023-04-25T06:08:36;3.67;;;1.25;;
52494;SDS011;38405;53.212;5.660;2023-04-25T06:11:03;9.75;;;1.52;;
52494;SDS011;38405;53.212;5.660;2023-04-25T06:13:29;4.85;;;1.58;;
52494;SDS011;38405;53.212;5.660;2023-04-25T06:15:55;7.38;;;1.67;;
52494;SDS011;38405;53.212;5.660;2023-04-25T06:18:21;10.48;;;1.55;;
52494;SDS011;38405;53.212;5.660;2023-04-25T06:20:46;6.20;;;1.75;;
52494;SDS011;38405;53.212;5.660;2023-04-25T06:23:12;9.93;;;2.08;;
52494;SDS011;38405;53.212;5.660;2023-04-25T06:25:38;8.65;;;2.22;;
52494;SDS011;38405;53.212;5.660;2023-04-25T06:28:03;9.80;;;1.90;;
52494;SDS011;38405;53.212;5.660;2023-04-25T06:30:29;12.82;;;2.10;;
52494;SDS011;38405;53.212;5.660;2023-04-25T06:32:55;5.53;;;1.80;;
52494;SDS011;38405;53.212;5.660;2023-04-25T06:35:20;14.90;;;2.10;;
52494;SDS011;38405;53.212;5.660;2023-04-25T06:37:46;9.55;;;2.05;;
52494;SDS011;38405;53.212;5.660;2023-04-25T06:40:12;8.13;;;1.55;;
52494;SDS011;38405;53.212;5.660;2023-04-25T06:42:37;11.07;;;1.48;;
52494;SDS011;38405;53.212;5.660;2023-04-25T06:45:03;3.75;;;1.27;;
52494;SDS011;38405;53.212;5.660;2023-04-25T06:47:29;5.13;;;1.58;;
52494;SDS011;38405;53.212;5.660;2023-04-25T06:49:55;10.13;;;1.60;;
52494;SDS011;38405;53.212;5.660;2023-04-25T06:52:20;6.75;;;1.38;;
52494;SDS011;38405;53.212;5.660;2023-04-25T06:54:46;5.90;;;1.50;;
52494;SDS011;38405;53.212;5.660;2023-04-25T06:57:12;3.90;;;1.27;;
52494;SDS011;38405;53.212;5.660;2023-04-25T06:59:38;5.53;;;0.98;;
52494;SDS011;38405;53.212;5.660;2023-04-25T07:02:03;5.68;;;1.60;;
52494;SDS011;38405;53.212;5.660;2023-04-25T07:04:30;3.78;;;1.50;;
52494;SDS011;38405;53.212;5.660;2023-04-25T07:06:56;6.70;;;1.40;;
52494;SDS011;38405;53.212;5.660;2023-04-25T07:09:22;6.88;;;1.55;;
52494;SDS011;38405;53.212;5.660;2023-04-25T07:11:48;5.20;;;1.42;;
52494;SDS011;38405;53.212;5.660;2023-04-25T07:14:13;7.45;;;1.20;;
52494;SDS011;38405;53.212;5.660;2023-04-25T07:16:40;5.20;;;1.67;;
52494;SDS011;38405;53.212;5.660;2023-04-25T07:19:05;5.50;;;1.40;;
52494;SDS011;38405;53.212;5.660;2023-04-25T07:21:31;6.47;;;1.70;;
52494;SDS011;38405;53.212;5.660;2023-04-25T07:23:57;13.35;;;2.28;;
52494;SDS011;38405;53.212;5.660;2023-04-25T07:26:23;8.32;;;1.85;;
52494;SDS011;38405;53.212;5.660;2023-04-25T07:28:49;9.38;;;1.45;;
52494;SDS011;38405;53.212;5.660;2023-04-25T07:31:16;8.27;;;1.58;;
52494;SDS011;38405;53.212;5.660;2023-04-25T07:33:43;9.10;;;1.75;;
52494;SDS011;38405;53.212;5.660;2023-04-25T07:36:12;7.95;;;1.50;;
52494;SDS011;38405;53.212;5.660;2023-04-25T07:38:40;8.05;;;1.83;;
52494;SDS011;38405;53.212;5.660;2023-04-25T07:41:05;9.05;;;1.65;;
52494;SDS011;38405;53.212;5.660;2023-04-25T07:43:31;8.25;;;1.70;;
52494;SDS011;38405;53.212;5.660;2023-04-25T07:45:57;9.00;;;1.38;;
52494;SDS011;38405;53.212;5.660;2023-04-25T07:48:23;8.95;;;1.98;;
52494;SDS011;38405;53.212;5.660;2023-04-25T07:50:49;5.10;;;1.20;;
52494;SDS011;38405;53.212;5.660;2023-04-25T07:53:14;4.85;;;1.20;;
52494;SDS011;38405;53.212;5.660;2023-04-25T07:55:40;8.05;;;1.70;;
52494;SDS011;38405;53.212;5.660;2023-04-25T07:58:06;7.78;;;1.10;;
52494;SDS011;38405;53.212;5.660;2023-04-25T08:00:33;7.00;;;1.38;;
52494;SDS011;38405;53.212;5.660;2023-04-25T08:02:58;9.35;;;2.00;;
52494;SDS011;38405;53.212;5.660;2023-04-25T08:05:24;4.75;;;1.42;;
52494;SDS011;38405;53.212;5.660;2023-04-25T08:07:50;12.35;;;1.92;;
52494;SDS011;38405;53.212;5.660;2023-04-25T08:10:15;12.55;;;1.83;;
52494;SDS011;38405;53.212;5.660;2023-04-25T08:12:41;6.57;;;1.88;;
52494;SDS011;38405;53.212;5.660;2023-04-25T08:15:07;6.25;;;1.45;;
52494;SDS011;38405;53.212;5.660;2023-04-25T08:17:33;11.50;;;1.50;;
52494;SDS011;38405;53.212;5.660;2023-04-25T08:19:59;12.35;;;1.70;;
52494;SDS011;38405;53.212;5.660;2023-04-25T08:22:24;10.38;;;1.65;;
52494;SDS011;38405;53.212;5.660;2023-04-25T08:24:50;7.93;;;1.52;;
52494;SDS011;38405;53.212;5.660;2023-04-25T08:27:16;5.72;;;1.70;;
52494;SDS011;38405;53.212;5.660;2023-04-25T08:29:43;5.93;;;1.80;;
52494;SDS011;38405;53.212;5.660;2023-04-25T08:32:08;7.97;;;1.98;;
52494;SDS011;38405;53.212;5.660;2023-04-25T08:34:34;7.45;;;1.70;;
52494;SDS011;38405;53.212;5.660;2023-04-25T08:37:01;9.82;;;1.92;;
52494;SDS011;38405;53.212;5.660;2023-04-25T08:39:29;10.80;;;1.75;;
52494;SDS011;38405;53.212;5.660;2023-04-25T08:41:55;8.77;;;1.60;;
52494;SDS011;38405;53.212;5.660;2023-04-25T08:44:22;9.43;;;1.92;;
52494;SDS011;38405;53.212;5.660;2023-04-25T08:46:48;9.82;;;1.63;;
52494;SDS011;38405;53.212;5.660;2023-04-25T08:49:15;5.80;;;1.67;;
52494;SDS011;38405;53.212;5.660;2023-04-25T08:51:46;9.15;;;1.67;;
52494;SDS011;38405;53.212;5.660;2023-04-25T08:54:12;7.45;;;1.42;;
52494;SDS011;38405;53.212;5.660;2023-04-25T08:56:40;4.97;;;1.48;;
52494;SDS011;38405;53.212;5.660;2023-04-25T08:59:08;5.28;;;1.20;;
52494;SDS011;38405;53.212;5.660;2023-04-25T09:01:34;9.15;;;1.65;;
52494;SDS011;38405;53.212;5.660;2023-04-25T09:04:00;4.68;;;1.38;;
52494;SDS011;38405;53.212;5.660;2023-04-25T09:06:27;6.53;;;1.38;;
52494;SDS011;38405;53.212;5.660;2023-04-25T09:08:57;6.05;;;1.50;;
52494;SDS011;38405;53.212;5.660;2023-04-25T09:11:30;3.63;;;1.25;;
52494;SDS011;38405;53.212;5.660;2023-04-25T09:16:56;4.90;;;1.20;;
52494;SDS011;38405;53.212;5.660;2023-04-25T09:19:29;2.15;;;0.70;;
52494;SDS011;38405;53.212;5.660;2023-04-25T09:22:05;3.45;;;1.50;;
52494;SDS011;38405;53.212;5.660;2023-04-25T09:27:06;4.50;;;0.90;;
52494;SDS011;38405;53.212;5.660;2023-04-25T09:29:34;8.48;;;1.73;;
52494;SDS011;38405;53.212;5.660;2023-04-25T09:32:11;6.18;;;1.33;;
52494;SDS011;38405;53.212;5.660;2023-04-25T09:34:41;5.55;;;1.35;;
52494;SDS011;38405;53.212;5.660;2023-04-25T09:37:09;5.70;;;1.35;;
52494;SDS011;38405;53.212;5.660;2023-04-25T09:39:36;5.70;;;1.40;;
52494;SDS011;38405;53.212;5.660;2023-04-25T09:42:03;6.93;;;1.50;;
52494;SDS011;38405;53.212;5.660;2023-04-25T09:44:30;7.20;;;1.58;;
52494;SDS011;38405;53.212;5.660;2023-04-25T09:46:55;8.18;;;1.40;;
52494;SDS011;38405;53.212;5.660;2023-04-25T09:49:22;6.10;;;1.35;;
52494;SDS011;38405;53.212;5.660;2023-04-25T09:51:57;6.90;;;1.40;;
52494;SDS011;38405;53.212;5.660;2023-04-25T09:54:25;8.38;;;1.55;;
52494;SDS011;38405;53.212;5.660;2023-04-25T09:56:51;6.28;;;1.20;;
52494;SDS011;38405;53.212;5.660;2023-04-25T09:59:21;7.80;;;1.52;;
52494;SDS011;38405;53.212;5.660;2023-04-25T10:01:48;9.82;;;1.88;;
52494;SDS011;38405;53.212;5.660;2023-04-25T10:04:16;3.22;;;1.30;;
52494;SDS011;38405;53.212;5.660;2023-04-25T10:06:48;7.22;;;1.70;;
52494;SDS011;38405;53.212;5.660;2023-04-25T10:09:15;6.03;;;1.55;;
52494;SDS011;38405;53.212;5.660;2023-04-25T10:11:43;7.45;;;1.45;;
52494;SDS011;38405;53.212;5.660;2023-04-25T10:14:12;6.40;;;1.60;;
52494;SDS011;38405;53.212;5.660;2023-04-25T10:16:38;7.88;;;1.70;;
52494;SDS011;38405;53.212;5.660;2023-04-25T10:19:06;5.53;;;2.03;;
52494;SDS011;38405;53.212;5.660;2023-04-25T10:21:32;11.23;;;2.35;;
52494;SDS011;38405;53.212;5.660;2023-04-25T10:24:00;5.50;;;1.50;;
52494;SDS011;38405;53.212;5.660;2023-04-25T10:26:26;8.88;;;2.15;;
52494;SDS011;38405;53.212;5.660;2023-04-25T10:28:58;5.13;;;1.83;;
52494;SDS011;38405;53.212;5.660;2023-04-25T10:31:31;3.97;;;1.30;;
52494;SDS011;38405;53.212;5.660;2023-04-25T10:33:57;7.60;;;1.65;;
52494;SDS011;38405;53.212;5.660;2023-04-25T10:36:30;6.38;;;1.90;;
52494;SDS011;38405;53.212;5.660;2023-04-25T10:38:58;3.83;;;1.45;;
52494;SDS011;38405;53.212;5.660;2023-04-25T10:41:32;9.95;;;2.05;;
52494;SDS011;38405;53.212;5.660;2023-04-25T10:44:12;7.40;;;1.55;;
52494;SDS011;38405;53.212;5.660;2023-04-25T10:46:38;5.68;;;1.30;;
52494;SDS011;38405;53.212;5.660;2023-04-25T10:49:04;4.35;;;1.20;;
52494;SDS011;38405;53.212;5.660;2023-04-25T10:51:35;6.93;;;1.38;;
52494;SDS011;38405;53.212;5.660;2023-04-25T10:56:31;8.32;;;1.65;;
52494;SDS011;38405;53.212;5.660;2023-04-25T10:59:05;6.18;;;1.33;;
52494;SDS011;38405;53.212;5.660;2023-04-25T11:01:47;7.85;;;2.13;;
52494;SDS011;38405;53.212;5.660;2023-04-25T11:04:24;8.02;;;1.75;;
52494;SDS011;38405;53.212;5.660;2023-04-25T11:09:35;11.02;;;1.85;;
52494;SDS011;38405;53.212;5.660;2023-04-25T11:12:01;10.45;;;1.60;;
52494;SDS011;38405;53.212;5.660;2023-04-25T11:14:27;6.75;;;1.77;;
52494;SDS011;38405;53.212;5.660;2023-04-25T11:16:55;8.43;;;1.85;;
52494;SDS011;38405;53.212;5.660;2023-04-25T11:19:23;7.68;;;1.85;;
52494;SDS011;38405;53.212;5.660;2023-04-25T11:21:50;8.05;;;1.63;;
52494;SDS011;38405;53.212;5.660;2023-04-25T11:24:16;10.05;;;1.73;;
52494;SDS011;38405;53.212;5.660;2023-04-25T11:26:42;11.65;;;2.00;;
52494;SDS011;38405;53.212;5.660;2023-04-25T11:29:08;5.45;;;1.88;;
52494;SDS011;38405;53.212;5.660;2023-04-25T11:31:34;8.18;;;1.67;;
52494;SDS011;38405;53.212;5.660;2023-04-25T11:34:00;6.40;;;1.50;;
52494;SDS011;38405;53.212;5.660;2023-04-25T11:36:26;9.85;;;1.80;;
52494;SDS011;38405;53.212;5.660;2023-04-25T11:38:52;7.28;;;1.92;;
52494;SDS011;38405;53.212;5.660;2023-04-25T11:41:18;11.15;;;2.00;;
52494;SDS011;38405;53.212;5.660;2023-04-25T11:43:45;6.03;;;1.40;;
52494;SDS011;38405;53.212;5.660;2023-04-25T11:46:11;7.03;;;1.42;;
52494;SDS011;38405;53.212;5.660;2023-04-25T11:48:38;6.32;;;1.42;;
52494;SDS011;38405;53.212;5.660;2023-04-25T11:51:04;9.65;;;1.60;;
52494;SDS011;38405;53.212;5.660;2023-04-25T11:53:30;5.47;;;1.45;;
52494;SDS011;38405;53.212;5.660;2023-04-25T11:55:55;6.35;;;1.92;;
52494;SDS011;38405;53.212;5.660;2023-04-25T11:58:21;7.45;;;1.52;;
52494;SDS011;38405;53.212;5.660;2023-04-25T12:00:47;6.50;;;1.38;;
52494;SDS011;38405;53.212;5.660;2023-04-25T12:03:12;3.95;;;1.40;;
52494;SDS011;38405;53.212;5.660;2023-04-25T12:05:38;5.65;;;1.38;;
52494;SDS011;38405;53.212;5.660;2023-04-25T12:08:14;5.20;;;1.50;;
52494;SDS011;38405;53.212;5.660;2023-04-25T12:10:44;6.28;;;1.80;;
52494;SDS011;38405;53.212;5.660;2023-04-25T12:13:20;7.68;;;1.88;;
52494;SDS011;38405;53.212;5.660;2023-04-25T12:15:51;12.85;;;2.05;;
52494;SDS011;38405;53.212;5.660;2023-04-25T12:18:25;6.18;;;1.95;;
52494;SDS011;38405;53.212;5.660;2023-04-25T12:20:54;6.95;;;1.50;;
52494;SDS011;38405;53.212;5.660;2023-04-25T12:23:26;7.32;;;1.75;;
52494;SDS011;38405;53.212;5.660;2023-04-25T12:25:53;9.43;;;2.00;;
52494;SDS011;38405;53.212;5.660;2023-04-25T12:28:22;7.20;;;1.60;;
52494;SDS011;38405;53.212;5.660;2023-04-25T12:33:23;3.63;;;1.13;;
52494;SDS011;38405;53.212;5.660;2023-04-25T12:35:53;4.32;;;1.67;;
52494;SDS011;38405;53.212;5.660;2023-04-25T12:38:22;8.80;;;1.80;;
52494;SDS011;38405;53.212;5.660;2023-04-25T12:40:49;10.05;;;1.70;;
52494;SDS011;38405;53.212;5.660;2023-04-25T12:43:15;8.55;;;1.80;;
52494;SDS011;38405;53.212;5.660;2023-04-25T12:45:40;6.28;;;1.40;;
52494;SDS011;38405;53.212;5.660;2023-04-25T12:48:06;5.80;;;1.50;;
52494;SDS011;38405;53.212;5.660;2023-04-25T12:50:32;5.22;;;1.58;;
52494;SDS011;38405;53.212;5.660;2023-04-25T12:52:57;8.00;;;1.77;;
52494;SDS011;38405;53.212;5.660;2023-04-25T12:55:23;9.07;;;1.88;;
52494;SDS011;38405;53.212;5.660;2023-04-25T12:57:48;6.88;;;1.48;;
52494;SDS011;38405;53.212;5.660;2023-04-25T13:00:14;8.85;;;1.30;;
52494;SDS011;38405;53.212;5.660;2023-04-25T13:02:43;7.97;;;1.65;;
52494;SDS011;38405;53.212;5.660;2023-04-25T13:05:08;5.60;;;1.40;;
52494;SDS011;38405;53.212;5.660;2023-04-25T13:07:34;3.22;;;1.08;;
52494;SDS011;38405;53.212;5.660;2023-04-25T13:10:00;6.50;;;1.50;;
52494;SDS011;38405;53.212;5.660;2023-04-25T13:12:27;5.32;;;1.08;;
52494;SDS011;38405;53.212;5.660;2023-04-25T13:14:53;5.20;;;1.67;;
52494;SDS011;38405;53.212;5.660;2023-04-25T13:17:18;3.95;;;1.42;;
52494;SDS011;38405;53.212;5.660;2023-04-25T13:19:44;7.30;;;1.48;;
52494;SDS011;38405;53.212;5.660;2023-04-25T13:22:10;7.90;;;1.15;;
52494;SDS011;38405;53.212;5.660;2023-04-25T13:24:36;8.25;;;1.48;;
52494;SDS011;38405;53.212;5.660;2023-04-25T13:27:01;7.55;;;1.70;;
52494;SDS011;38405;53.212;5.660;2023-04-25T13:29:27;4.20;;;1.48;;
52494;SDS011;38405;53.212;5.660;2023-04-25T13:31:53;6.80;;;1.77;;
52494;SDS011;38405;53.212;5.660;2023-04-25T13:34:18;9.18;;;1.60;;
52494;SDS011;38405;53.212;5.660;2023-04-25T13:36:44;8.18;;;1.77;;
52494;SDS011;38405;53.212;5.660;2023-04-25T13:39:10;11.07;;;2.25;;
52494;SDS011;38405;53.212;5.660;2023-04-25T13:41:36;8.75;;;1.77;;
52494;SDS011;38405;53.212;5.660;2023-04-25T13:44:02;8.52;;;1.70;;
52494;SDS011;38405;53.212;5.660;2023-04-25T13:46:27;7.22;;;1.75;;
52494;SDS011;38405;53.212;5.660;2023-04-25T13:48:53;5.32;;;1.50;;
52494;SDS011;38405;53.212;5.660;2023-04-25T13:51:19;7.13;;;1.73;;
52494;SDS011;38405;53.212;5.660;2023-04-25T13:53:45;4.13;;;1.40;;
52494;SDS011;38405;53.212;5.660;2023-04-25T13:56:11;9.15;;;1.58;;
52494;SDS011;38405;53.212;5.660;2023-04-25T13:58:37;7.50;;;1.63;;
52494;SDS011;38405;53.212;5.660;2023-04-25T14:01:03;8.80;;;2.05;;
52494;SDS011;38405;53.212;5.660;2023-04-25T14:03:28;7.93;;;1.73;;
52494;SDS011;38405;53.212;5.660;2023-04-25T14:05:55;5.60;;;1.52;;
52494;SDS011;38405;53.212;5.660;2023-04-25T14:08:20;6.05;;;1.30;;
52494;SDS011;38405;53.212;5.660;2023-04-25T14:10:46;6.95;;;1.77;;
52494;SDS011;38405;53.212;5.660;2023-04-25T14:13:15;7.05;;;1.90;;
52494;SDS011;38405;53.212;5.660;2023-04-25T14:15:40;7.30;;;1.60;;
52494;SDS011;38405;53.212;5.660;2023-04-25T14:18:06;8.73;;;1.80;;
52494;SDS011;38405;53.212;5.660;2023-04-25T14:20:34;8.90;;;2.20;;
52494;SDS011;38405;53.212;5.660;2023-04-25T14:23:00;14.95;;;2.30;;
52494;SDS011;38405;53.212;5.660;2023-04-25T14:25:27;8.48;;;1.80;;
52494;SDS011;38405;53.212;5.660;2023-04-25T14:27:53;9.15;;;1.73;;
52494;SDS011;38405;53.212;5.660;2023-04-25T14:30:21;7.20;;;1.75;;
52494;SDS011;38405;53.212;5.660;2023-04-25T14:32:50;5.90;;;1.50;;
52494;SDS011;38405;53.212;5.660;2023-04-25T14:35:16;7.60;;;1.48;;
52494;SDS011;38405;53.212;5.660;2023-04-25T14:37:42;9.30;;;2.03;;
52494;SDS011;38405;53.212;5.660;2023-04-25T14:40:10;7.88;;;1.80;;
52494;SDS011;38405;53.212;5.660;2023-04-25T14:42:38;4.72;;;1.30;;
52494;SDS011;38405;53.212;5.660;2023-04-25T14:45:07;9.77;;;1.85;;
52494;SDS011;38405;53.212;5.660;2023-04-25T14:47:34;9.82;;;2.30;;
52494;SDS011;38405;53.212;5.660;2023-04-25T14:50:01;6.28;;;1.65;;
52494;SDS011;38405;53.212;5.660;2023-04-25T14:52:26;3.28;;;1.10;;
52494;SDS011;38405;53.212;5.660;2023-04-25T14:54:52;10.05;;;1.35;;